sensor_id;sensor_type;location;lat;lon;timestamp;pressure;altitude;pressure_sealevel;temperature;humidity
3544;BME280;1786;52.870;9.578;2022-09-03T00:01:45;100727.91;;;25.89;42.45
3544;BME280;1786;52.870;9.578;2022-09-03T00:04:23;100728.56;;;25.55;43.07
3544;BME280;1786;52.870;9.578;2022-09-03T00:06:59;100719.78;;;25.31;43.25
3544;BME280;1786;52.870;9.578;2022-09-03T00:09:39;100716.59;;;25.64;42.97
3544;BME280;1786;52.870;9.578;2022-09-03T00:12:13;100714.78;;;25.50;43.15
3544;BME280;1786;52.870;9.578;2022-09-03T00:14:45;100719.06;;;25.08;43.77
3544;BME280;1786;52.870;9.578;2022-09-03T00:17:15;100722.50;;;25.16;43.90
3544;BME280;1786;52.870;9.578;2022-09-03T00:19:52;100721.78;;;24.93;44.44
3544;BME280;1786;52.870;9.578;2022-09-03T00:22:24;100720.09;;;24.92;44.27
3544;BME280;1786;52.870;9.578;2022-09-03T00:24:53;100725.91;;;24.36;44.87
3544;BME280;1786;52.870;9.578;2022-09-03T00:27:24;100722.06;;;24.53;44.84
3544;BME280;1786;52.870;9.578;2022-09-03T00:29:57;100723.81;;;24.61;44.48
3544;BME280;1786;52.870;9.578;2022-09-03T00:33:00;100719.16;;;24.02;45.61
3544;BME280;1786;52.870;9.578;2022-09-03T00:35:36;100721.28;;;23.84;45.85
3544;BME280;1786;52.870;9.578;2022-09-03T00:38:05;100722.34;;;24.21;45.80
3544;BME280;1786;52.870;9.578;2022-09-03T00:46:07;100713.22;;;24.22;45.29
3544;BME280;1786;52.870;9.578;2022-09-03T00:49:19;100712.78;;;23.95;45.81
3544;BME280;1786;52.870;9.578;2022-09-03T00:55:12;100706.06;;;23.91;46.31
3544;BME280;1786;52.870;9.578;2022-09-03T01:00:27;100708.94;;;24.12;45.75
3544;BME280;1786;52.870;9.578;2022-09-03T01:03:04;100705.88;;;23.69;46.27
3544;BME280;1786;52.870;9.578;2022-09-03T01:05:47;100700.28;;;23.79;46.46
3544;BME280;1786;52.870;9.578;2022-09-03T01:08:28;100704.78;;;23.87;46.24
3544;BME280;1786;52.870;9.578;2022-09-03T01:25:05;100710.56;;;23.21;47.16
3544;BME280;1786;52.870;9.578;2022-09-03T01:27:40;100710.19;;;23.55;46.65
3544;BME280;1786;52.870;9.578;2022-09-03T01:30:12;100709.03;;;23.27;47.04
3544;BME280;1786;52.870;9.578;2022-09-03T01:35:45;100700.56;;;22.90;47.38
3544;BME280;1786;52.870;9.578;2022-09-03T01:38:18;100694.03;;;23.24;47.59
3544;BME280;1786;52.870;9.578;2022-09-03T01:46:50;100696.72;;;23.24;47.60
3544;BME280;1786;52.870;9.578;2022-09-03T01:49:33;100700.66;;;23.45;47.01
3544;BME280;1786;52.870;9.578;2022-09-03T01:52:12;100702.75;;;23.03;47.84
3544;BME280;1786;52.870;9.578;2022-09-03T01:54:44;100705.41;;;23.11;47.60
3544;BME280;1786;52.870;9.578;2022-09-03T02:02:41;100698.84;;;22.58;48.95
3544;BME280;1786;52.870;9.578;2022-09-03T02:05:10;100707.03;;;22.73;48.33
3544;BME280;1786;52.870;9.578;2022-09-03T02:07:46;100705.00;;;22.75;48.17
3544;BME280;1786;52.870;9.578;2022-09-03T02:10:16;100704.56;;;23.11;47.49
3544;BME280;1786;52.870;9.578;2022-09-03T02:12:52;100712.34;;;22.89;47.81
3544;BME280;1786;52.870;9.578;2022-09-03T02:15:22;100719.28;;;22.84;47.90
3544;BME280;1786;52.870;9.578;2022-09-03T02:17:52;100718.72;;;22.97;47.84
3544;BME280;1786;52.870;9.578;2022-09-03T02:20:24;100722.00;;;22.84;48.12
3544;BME280;1786;52.870;9.578;2022-09-03T02:22:52;100725.72;;;23.22;47.33
3544;BME280;1786;52.870;9.578;2022-09-03T02:25:22;100723.56;;;23.49;46.85
3544;BME280;1786;52.870;9.578;2022-09-03T02:27:50;100722.28;;;23.37;47.14
3544;BME280;1786;52.870;9.578;2022-09-03T02:30:17;100723.06;;;23.68;46.52
3544;BME280;1786;52.870;9.578;2022-09-03T02:32:44;100716.09;;;23.51;46.68
3544;BME280;1786;52.870;9.578;2022-09-03T02:35:11;100719.34;;;23.15;47.26
3544;BME280;1786;52.870;9.578;2022-09-03T02:37:38;100715.09;;;23.21;47.37
3544;BME280;1786;52.870;9.578;2022-09-03T02:40:06;100714.88;;;23.30;47.03
3544;BME280;1786;52.870;9.578;2022-09-03T02:42:35;100710.00;;;23.57;46.56
3544;BME280;1786;52.870;9.578;2022-09-03T02:45:19;100714.97;;;23.68;46.27
3544;BME280;1786;52.870;9.578;2022-09-03T02:47:51;100709.59;;;23.14;47.19
3544;BME280;1786;52.870;9.578;2022-09-03T02:50:19;100715.19;;;23.36;46.84
3544;BME280;1786;52.870;9.578;2022-09-03T02:52:45;100707.00;;;23.29;46.69
3544;BME280;1786;52.870;9.578;2022-09-03T02:55:12;100705.88;;;23.15;47.43
3544;BME280;1786;52.870;9.578;2022-09-03T02:57:39;100709.81;;;23.04;47.61
3544;BME280;1786;52.870;9.578;2022-09-03T03:00:06;100714.78;;;23.24;47.35
3544;BME280;1786;52.870;9.578;2022-09-03T03:02:34;100708.41;;;23.17;47.41
3544;BME280;1786;52.870;9.578;2022-09-03T03:05:00;100710.53;;;22.82;47.70
3544;BME280;1786;52.870;9.578;2022-09-03T03:07:31;100718.31;;;23.24;47.01
3544;BME280;1786;52.870;9.578;2022-09-03T03:09:58;100711.47;;;23.05;47.64
3544;BME280;1786;52.870;9.578;2022-09-03T03:12:25;100717.72;;;23.06;47.81
3544;BME280;1786;52.870;9.578;2022-09-03T03:14:52;100711.63;;;23.12;47.53
3544;BME280;1786;52.870;9.578;2022-09-03T03:17:18;100716.97;;;23.20;46.95
3544;BME280;1786;52.870;9.578;2022-09-03T03:19:45;100710.06;;;23.49;46.74
3544;BME280;1786;52.870;9.578;2022-09-03T03:22:12;100715.59;;;23.24;47.09
3544;BME280;1786;52.870;9.578;2022-09-03T03:24:38;100708.97;;;23.04;47.72
3544;BME280;1786;52.870;9.578;2022-09-03T03:27:05;100705.13;;;22.98;47.63
3544;BME280;1786;52.870;9.578;2022-09-03T03:29:33;100701.97;;;22.78;48.32
3544;BME280;1786;52.870;9.578;2022-09-03T03:32:01;100707.72;;;22.67;47.94
3544;BME280;1786;52.870;9.578;2022-09-03T03:34:28;100715.09;;;22.81;48.11
3544;BME280;1786;52.870;9.578;2022-09-03T03:36:54;100710.38;;;22.83;47.86
3544;BME280;1786;52.870;9.578;2022-09-03T03:39:21;100721.19;;;22.67;47.99
3544;BME280;1786;52.870;9.578;2022-09-03T03:41:48;100717.28;;;22.86;47.72
3544;BME280;1786;52.870;9.578;2022-09-03T03:44:15;100722.19;;;22.74;47.97
3544;BME280;1786;52.870;9.578;2022-09-03T03:46:42;100713.06;;;22.83;47.66
3544;BME280;1786;52.870;9.578;2022-09-03T03:49:10;100709.66;;;22.98;47.38
3544;BME280;1786;52.870;9.578;2022-09-03T03:51:37;100713.09;;;22.67;47.92
3544;BME280;1786;52.870;9.578;2022-09-03T03:54:04;100709.19;;;22.78;47.70
3544;BME280;1786;52.870;9.578;2022-09-03T03:56:32;100713.81;;;22.53;48.04
3544;BME280;1786;52.870;9.578;2022-09-03T03:58:59;100712.13;;;22.68;47.89
3544;BME280;1786;52.870;9.578;2022-09-03T04:01:27;100716.81;;;22.66;48.04
3544;BME280;1786;52.870;9.578;2022-09-03T04:03:54;100712.31;;;22.50;48.06
3544;BME280;1786;52.870;9.578;2022-09-03T04:06:22;100710.41;;;22.67;47.77
3544;BME280;1786;52.870;9.578;2022-09-03T04:08:49;100708.72;;;22.74;47.88
3544;BME280;1786;52.870;9.578;2022-09-03T04:11:18;100712.50;;;22.49;48.15
3544;BME280;1786;52.870;9.578;2022-09-03T04:13:46;100706.59;;;22.53;47.97
3544;BME280;1786;52.870;9.578;2022-09-03T04:16:18;100708.75;;;22.58;47.89
3544;BME280;1786;52.870;9.578;2022-09-03T04:18:45;100710.44;;;22.59;47.82
3544;BME280;1786;52.870;9.578;2022-09-03T04:21:32;100711.44;;;22.66;47.79
3544;BME280;1786;52.870;9.578;2022-09-03T04:23:59;100706.44;;;22.46;47.90
3544;BME280;1786;52.870;9.578;2022-09-03T04:26:28;100713.78;;;22.69;47.71
3544;BME280;1786;52.870;9.578;2022-09-03T04:28:59;100711.50;;;22.25;48.34
3544;BME280;1786;52.870;9.578;2022-09-03T04:31:27;100709.09;;;22.55;48.09
3544;BME280;1786;52.870;9.578;2022-09-03T04:33:54;100706.81;;;22.83;47.63
3544;BME280;1786;52.870;9.578;2022-09-03T04:36:23;100703.47;;;23.20;46.88
3544;BME280;1786;52.870;9.578;2022-09-03T04:38:52;100710.06;;;22.78;47.49
3544;BME280;1786;52.870;9.578;2022-09-03T04:41:22;100712.56;;;22.80;47.35
3544;BME280;1786;52.870;9.578;2022-09-03T04:43:51;100707.63;;;22.92;47.39
3544;BME280;1786;52.870;9.578;2022-09-03T04:46:20;100718.06;;;22.95;47.25
3544;BME280;1786;52.870;9.578;2022-09-03T04:48:49;100719.16;;;23.48;46.24
3544;BME280;1786;52.870;9.578;2022-09-03T04:51:19;100711.03;;;23.25;46.53
3544;BME280;1786;52.870;9.578;2022-09-03T04:53:47;100711.47;;;23.05;46.76
3544;BME280;1786;52.870;9.578;2022-09-03T04:56:20;100718.28;;;23.55;46.39
3544;BME280;1786;52.870;9.578;2022-09-03T04:58:48;100712.88;;;23.55;46.22
3544;BME280;1786;52.870;9.578;2022-09-03T05:01:20;100710.91;;;23.18;46.84
3544;BME280;1786;52.870;9.578;2022-09-03T05:03:47;100719.50;;;22.74;47.53
3544;BME280;1786;52.870;9.578;2022-09-03T05:06:14;100718.72;;;23.05;47.19
3544;BME280;1786;52.870;9.578;2022-09-03T05:08:43;100727.06;;;23.81;46.19
3544;BME280;1786;52.870;9.578;2022-09-03T05:11:10;100727.53;;;25.04;44.15
3544;BME280;1786;52.870;9.578;2022-09-03T05:13:37;100731.81;;;26.08;43.09
3544;BME280;1786;52.870;9.578;2022-09-03T05:16:06;100736.06;;;26.73;41.77
3544;BME280;1786;52.870;9.578;2022-09-03T05:18:34;100735.50;;;28.21;40.03
3544;BME280;1786;52.870;9.578;2022-09-03T05:21:05;100743.09;;;29.04;38.95
3544;BME280;1786;52.870;9.578;2022-09-03T05:23:38;100742.06;;;30.13;37.44
3544;BME280;1786;52.870;9.578;2022-09-03T05:26:08;100744.97;;;31.05;36.16
3544;BME280;1786;52.870;9.578;2022-09-03T05:28:38;100752.41;;;32.19;35.29
3544;BME280;1786;52.870;9.578;2022-09-03T05:31:09;100757.75;;;32.85;33.58
3544;BME280;1786;52.870;9.578;2022-09-03T05:33:48;100753.00;;;32.80;33.76
3544;BME280;1786;52.870;9.578;2022-09-03T05:36:17;100756.47;;;33.68;33.33
3544;BME280;1786;52.870;9.578;2022-09-03T05:38:44;100747.97;;;34.15;33.15
3544;BME280;1786;52.870;9.578;2022-09-03T05:41:13;100750.28;;;34.23;32.40
3544;BME280;1786;52.870;9.578;2022-09-03T05:43:40;100742.59;;;34.59;32.47
3544;BME280;1786;52.870;9.578;2022-09-03T05:46:09;100745.97;;;35.27;31.75
3544;BME280;1786;52.870;9.578;2022-09-03T05:48:39;100736.63;;;35.55;31.23
3544;BME280;1786;52.870;9.578;2022-09-03T05:51:10;100726.00;;;35.59;31.51
3544;BME280;1786;52.870;9.578;2022-09-03T05:53:39;100737.56;;;36.26;31.03
3544;BME280;1786;52.870;9.578;2022-09-03T05:56:11;100740.03;;;37.17;29.95
3544;BME280;1786;52.870;9.578;2022-09-03T05:58:40;100746.22;;;37.81;29.30
3544;BME280;1786;52.870;9.578;2022-09-03T06:01:17;100745.97;;;38.18;29.29
3544;BME280;1786;52.870;9.578;2022-09-03T06:03:46;100744.69;;;38.91;28.62
3544;BME280;1786;52.870;9.578;2022-09-03T06:06:14;100746.63;;;39.50;28.02
3544;BME280;1786;52.870;9.578;2022-09-03T06:08:41;100748.63;;;40.13;28.02
3544;BME280;1786;52.870;9.578;2022-09-03T06:11:10;100757.22;;;40.12;27.65
3544;BME280;1786;52.870;9.578;2022-09-03T06:13:37;100755.66;;;40.35;27.77
3544;BME280;1786;52.870;9.578;2022-09-03T06:16:05;100750.00;;;40.45;27.14
3544;BME280;1786;52.870;9.578;2022-09-03T06:18:32;100751.91;;;40.98;27.23
3544;BME280;1786;52.870;9.578;2022-09-03T06:21:04;100755.78;;;41.21;27.16
3544;BME280;1786;52.870;9.578;2022-09-03T06:23:32;100761.31;;;41.78;26.84
3544;BME280;1786;52.870;9.578;2022-09-03T06:26:04;100761.22;;;41.45;26.92
3544;BME280;1786;52.870;9.578;2022-09-03T06:28:32;100759.44;;;41.35;26.86
3544;BME280;1786;52.870;9.578;2022-09-03T06:31:05;100753.00;;;40.97;26.98
3544;BME280;1786;52.870;9.578;2022-09-03T06:33:34;100752.00;;;40.63;27.25
3544;BME280;1786;52.870;9.578;2022-09-03T06:36:03;100748.66;;;40.91;26.98
3544;BME280;1786;52.870;9.578;2022-09-03T06:38:35;100746.56;;;40.29;27.80
3544;BME280;1786;52.870;9.578;2022-09-03T06:41:04;100744.94;;;40.76;26.84
3544;BME280;1786;52.870;9.578;2022-09-03T06:43:34;100751.59;;;40.99;27.09
3544;BME280;1786;52.870;9.578;2022-09-03T06:48:34;100745.06;;;39.73;27.76
3544;BME280;1786;52.870;9.578;2022-09-03T06:51:06;100740.59;;;39.33;28.09
3544;BME280;1786;52.870;9.578;2022-09-03T06:53:36;100744.69;;;38.91;28.24
3544;BME280;1786;52.870;9.578;2022-09-03T06:56:06;100744.66;;;39.01;28.44
3544;BME280;1786;52.870;9.578;2022-09-03T06:58:41;100752.91;;;40.00;28.13
3544;BME280;1786;52.870;9.578;2022-09-03T07:01:17;100744.00;;;39.25;28.44
3544;BME280;1786;52.870;9.578;2022-09-03T07:03:46;100748.47;;;40.82;27.57
3544;BME280;1786;52.870;9.578;2022-09-03T07:06:16;100759.69;;;41.39;26.74
3544;BME280;1786;52.870;9.578;2022-09-03T07:08:43;100754.69;;;40.44;27.56
3544;BME280;1786;52.870;9.578;2022-09-03T07:11:13;100734.91;;;38.28;28.85
3544;BME280;1786;52.870;9.578;2022-09-03T07:13:44;100734.31;;;38.52;28.77
3544;BME280;1786;52.870;9.578;2022-09-03T07:16:14;100743.47;;;37.96;29.11
3544;BME280;1786;52.870;9.578;2022-09-03T07:18:42;100737.59;;;37.46;29.59
3544;BME280;1786;52.870;9.578;2022-09-03T07:21:12;100725.75;;;36.73;30.43
3544;BME280;1786;52.870;9.578;2022-09-03T07:23:40;100737.03;;;37.39;30.06
3544;BME280;1786;52.870;9.578;2022-09-03T07:26:10;100727.53;;;36.47;30.54
3544;BME280;1786;52.870;9.578;2022-09-03T07:28:39;100722.47;;;36.33;30.61
3544;BME280;1786;52.870;9.578;2022-09-03T07:31:09;100726.25;;;37.28;30.30
3544;BME280;1786;52.870;9.578;2022-09-03T07:33:38;100734.78;;;37.21;30.40
3544;BME280;1786;52.870;9.578;2022-09-03T07:36:10;100724.09;;;36.24;30.80
3544;BME280;1786;52.870;9.578;2022-09-03T07:38:41;100716.38;;;36.74;30.50
3544;BME280;1786;52.870;9.578;2022-09-03T07:41:12;100724.16;;;37.86;29.85
3544;BME280;1786;52.870;9.578;2022-09-03T07:43:54;100721.19;;;38.93;29.04
3544;BME280;1786;52.870;9.578;2022-09-03T07:46:24;100723.13;;;38.88;28.67
3544;BME280;1786;52.870;9.578;2022-09-03T07:48:57;100724.94;;;38.48;29.27
3544;BME280;1786;52.870;9.578;2022-09-03T07:51:26;100744.75;;;37.37;30.02
3544;BME280;1786;52.870;9.578;2022-09-03T07:53:55;100730.16;;;36.74;30.73
3544;BME280;1786;52.870;9.578;2022-09-03T07:56:26;100726.03;;;37.55;30.13
3544;BME280;1786;52.870;9.578;2022-09-03T07:58:52;100724.34;;;38.66;29.16
3544;BME280;1786;52.870;9.578;2022-09-03T08:01:24;100744.84;;;38.09;29.61
3544;BME280;1786;52.870;9.578;2022-09-03T08:03:51;100740.75;;;36.97;30.46
3544;BME280;1786;52.870;9.578;2022-09-03T08:06:21;100737.94;;;36.82;30.52
3544;BME280;1786;52.870;9.578;2022-09-03T08:08:56;100721.81;;;34.46;32.53
3544;BME280;1786;52.870;9.578;2022-09-03T08:11:30;100725.41;;;33.96;33.45
3544;BME280;1786;52.870;9.578;2022-09-03T08:13:59;100707.50;;;33.31;33.96
3544;BME280;1786;52.870;9.578;2022-09-03T08:16:29;100713.38;;;34.70;32.53
3544;BME280;1786;52.870;9.578;2022-09-03T08:18:56;100722.47;;;36.76;31.05
3544;BME280;1786;52.870;9.578;2022-09-03T08:21:25;100725.69;;;37.15;30.40
3544;BME280;1786;52.870;9.578;2022-09-03T08:23:53;100720.88;;;36.43;30.92
3544;BME280;1786;52.870;9.578;2022-09-03T08:26:21;100731.84;;;36.00;31.32
3544;BME280;1786;52.870;9.578;2022-09-03T08:28:48;100730.16;;;35.94;31.73
3544;BME280;1786;52.870;9.578;2022-09-03T08:31:21;100720.28;;;34.95;32.06
3544;BME280;1786;52.870;9.578;2022-09-03T08:33:52;100730.00;;;35.51;31.99
3544;BME280;1786;52.870;9.578;2022-09-03T08:36:22;100719.75;;;34.98;32.26
3544;BME280;1786;52.870;9.578;2022-09-03T08:38:50;100727.00;;;34.82;32.35
3544;BME280;1786;52.870;9.578;2022-09-03T08:41:31;100719.03;;;34.80;32.77
3544;BME280;1786;52.870;9.578;2022-09-03T08:44:29;100715.06;;;34.71;32.22
3544;BME280;1786;52.870;9.578;2022-09-03T08:49:44;100726.25;;;34.14;32.53
3544;BME280;1786;52.870;9.578;2022-09-03T08:58:27;100708.91;;;34.47;33.04
3544;BME280;1786;52.870;9.578;2022-09-03T09:01:17;100721.59;;;34.31;33.26
3544;BME280;1786;52.870;9.578;2022-09-03T09:04:04;100722.69;;;34.13;33.11
3544;BME280;1786;52.870;9.578;2022-09-03T09:15:30;100719.13;;;34.13;32.99
3544;BME280;1786;52.870;9.578;2022-09-03T09:21:14;100702.72;;;34.96;32.51
3544;BME280;1786;52.870;9.578;2022-09-03T09:23:48;100705.31;;;35.29;32.14
3544;BME280;1786;52.870;9.578;2022-09-03T09:26:18;100703.56;;;35.18;32.30
3544;BME280;1786;52.870;9.578;2022-09-03T09:28:50;100694.69;;;34.11;32.38
3544;BME280;1786;52.870;9.578;2022-09-03T09:31:18;100698.16;;;34.40;33.03
3544;BME280;1786;52.870;9.578;2022-09-03T09:33:45;100691.19;;;33.82;33.16
3544;BME280;1786;52.870;9.578;2022-09-03T09:36:16;100704.69;;;33.72;33.54
3544;BME280;1786;52.870;9.578;2022-09-03T09:38:45;100702.00;;;33.14;33.25
3544;BME280;1786;52.870;9.578;2022-09-03T09:41:19;100702.59;;;32.52;33.81
3544;BME280;1786;52.870;9.578;2022-09-03T09:43:46;100693.78;;;33.14;33.23
3544;BME280;1786;52.870;9.578;2022-09-03T09:46:19;100720.69;;;33.17;33.44
3544;BME280;1786;52.870;9.578;2022-09-03T09:48:52;100693.25;;;33.75;33.81
3544;BME280;1786;52.870;9.578;2022-09-03T09:51:28;100691.28;;;32.61;34.34
3544;BME280;1786;52.870;9.578;2022-09-03T09:54:17;100693.09;;;33.36;33.59
3544;BME280;1786;52.870;9.578;2022-09-03T09:56:46;100682.38;;;32.42;33.77
3544;BME280;1786;52.870;9.578;2022-09-03T09:59:13;100682.03;;;32.26;34.84
3544;BME280;1786;52.870;9.578;2022-09-03T10:01:42;100680.22;;;32.20;33.78
3544;BME280;1786;52.870;9.578;2022-09-03T10:04:21;100687.22;;;32.28;34.39
3544;BME280;1786;52.870;9.578;2022-09-03T10:07:03;100676.69;;;31.54;33.96
3544;BME280;1786;52.870;9.578;2022-09-03T10:09:32;100675.38;;;31.57;34.77
3544;BME280;1786;52.870;9.578;2022-09-03T10:12:07;100670.81;;;31.81;34.59
3544;BME280;1786;52.870;9.578;2022-09-03T10:14:44;100682.59;;;32.05;33.63
3544;BME280;1786;52.870;9.578;2022-09-03T10:20:10;100666.38;;;31.68;34.71
3544;BME280;1786;52.870;9.578;2022-09-03T10:22:59;100663.91;;;31.90;33.73
3544;BME280;1786;52.870;9.578;2022-09-03T10:25:39;100664.75;;;33.02;33.27
3544;BME280;1786;52.870;9.578;2022-09-03T10:28:09;100671.78;;;32.22;33.62
3544;BME280;1786;52.870;9.578;2022-09-03T10:30:51;100661.09;;;31.97;33.13
3544;BME280;1786;52.870;9.578;2022-09-03T10:33:46;100668.94;;;31.21;32.82
3544;BME280;1786;52.870;9.578;2022-09-03T10:36:21;100644.72;;;31.43;33.70
3544;BME280;1786;52.870;9.578;2022-09-03T10:39:14;100662.78;;;31.56;33.33
3544;BME280;1786;52.870;9.578;2022-09-03T10:44:42;100645.13;;;31.82;32.74
3544;BME280;1786;52.870;9.578;2022-09-03T10:50:13;100641.47;;;32.00;32.54
3544;BME280;1786;52.870;9.578;2022-09-03T11:01:29;100695.66;;;31.19;33.18
3544;BME280;1786;52.870;9.578;2022-09-03T11:04:16;100644.63;;;31.61;33.23
3544;BME280;1786;52.870;9.578;2022-09-03T11:09:40;100633.13;;;30.99;32.86
3544;BME280;1786;52.870;9.578;2022-09-03T11:12:19;100639.91;;;30.78;33.07
3544;BME280;1786;52.870;9.578;2022-09-03T11:17:45;100672.16;;;31.18;33.01
3544;BME280;1786;52.870;9.578;2022-09-03T11:20:19;100634.91;;;31.77;32.97
3544;BME280;1786;52.870;9.578;2022-09-03T11:22:49;100625.03;;;32.35;32.69
3544;BME280;1786;52.870;9.578;2022-09-03T11:25:19;100630.19;;;31.96;33.17
3544;BME280;1786;52.870;9.578;2022-09-03T11:34:05;100615.09;;;33.55;31.39
3544;BME280;1786;52.870;9.578;2022-09-03T11:36:35;100611.84;;;33.92;30.73
3544;BME280;1786;52.870;9.578;2022-09-03T11:39:33;100622.50;;;33.26;31.54
3544;BME280;1786;52.870;9.578;2022-09-03T11:42:09;100635.59;;;33.07;32.25
3544;BME280;1786;52.870;9.578;2022-09-03T11:47:22;100616.88;;;32.23;32.75
3544;BME280;1786;52.870;9.578;2022-09-03T11:49:52;100620.91;;;31.97;32.78
3544;BME280;1786;52.870;9.578;2022-09-03T11:52:27;100624.31;;;31.69;33.47
3544;BME280;1786;52.870;9.578;2022-09-03T11:54:54;100618.06;;;31.80;33.63
3544;BME280;1786;52.870;9.578;2022-09-03T11:57:27;100607.94;;;31.69;32.99
3544;BME280;1786;52.870;9.578;2022-09-03T12:00:11;100625.59;;;31.13;33.32
3544;BME280;1786;52.870;9.578;2022-09-03T12:02:50;100614.19;;;31.46;33.54
3544;BME280;1786;52.870;9.578;2022-09-03T12:05:40;100612.94;;;31.60;33.55
3544;BME280;1786;52.870;9.578;2022-09-03T12:08:34;100603.19;;;31.76;32.76
3544;BME280;1786;52.870;9.578;2022-09-03T12:11:18;100622.91;;;31.90;32.95
3544;BME280;1786;52.870;9.578;2022-09-03T12:14:01;100621.59;;;32.51;32.54
3544;BME280;1786;52.870;9.578;2022-09-03T12:17:14;100605.06;;;33.15;31.99
3544;BME280;1786;52.870;9.578;2022-09-03T12:19:50;100611.72;;;33.19;31.71
3544;BME280;1786;52.870;9.578;2022-09-03T12:22:20;100605.66;;;33.17;31.88
3544;BME280;1786;52.870;9.578;2022-09-03T12:24:48;100599.06;;;33.81;31.95
3544;BME280;1786;52.870;9.578;2022-09-03T12:32:23;100608.19;;;34.42;30.96
3544;BME280;1786;52.870;9.578;2022-09-03T12:34:50;100613.38;;;32.92;31.78
3544;BME280;1786;52.870;9.578;2022-09-03T12:37:20;100597.88;;;32.97;32.12
3544;BME280;1786;52.870;9.578;2022-09-03T12:40:27;100596.94;;;33.21;32.46
3544;BME280;1786;52.870;9.578;2022-09-03T12:43:12;100590.09;;;33.06;31.99
3544;BME280;1786;52.870;9.578;2022-09-03T12:45:59;100595.97;;;33.27;31.47
3544;BME280;1786;52.870;9.578;2022-09-03T12:48:57;100586.56;;;33.23;31.73
3544;BME280;1786;52.870;9.578;2022-09-03T12:51:49;100583.44;;;32.73;32.61
3544;BME280;1786;52.870;9.578;2022-09-03T12:54:21;100593.47;;;32.68;32.53
3544;BME280;1786;52.870;9.578;2022-09-03T12:56:54;100585.94;;;33.04;32.06
3544;BME280;1786;52.870;9.578;2022-09-03T12:59:22;100577.72;;;33.04;32.30
3544;BME280;1786;52.870;9.578;2022-09-03T13:01:53;100582.66;;;34.03;31.02
3544;BME280;1786;52.870;9.578;2022-09-03T13:04:28;100584.53;;;33.47;32.05
3544;BME280;1786;52.870;9.578;2022-09-03T13:09:37;100585.22;;;32.39;32.54
3544;BME280;1786;52.870;9.578;2022-09-03T13:12:05;100580.25;;;32.93;32.41
3544;BME280;1786;52.870;9.578;2022-09-03T13:14:46;100588.38;;;32.88;32.47
3544;BME280;1786;52.870;9.578;2022-09-03T13:22:58;100575.34;;;34.09;30.74
3544;BME280;1786;52.870;9.578;2022-09-03T13:25:56;100579.84;;;34.15;30.86
3544;BME280;1786;52.870;9.578;2022-09-03T13:34:04;100577.16;;;34.20;31.18
3544;BME280;1786;52.870;9.578;2022-09-03T13:39:48;100575.81;;;34.05;31.50
3544;BME280;1786;52.870;9.578;2022-09-03T13:42:24;100570.38;;;34.50;30.64
3544;BME280;1786;52.870;9.578;2022-09-03T13:44:59;100572.03;;;34.51;31.06
3544;BME280;1786;52.870;9.578;2022-09-03T13:50:18;100581.56;;;34.43;30.76
3544;BME280;1786;52.870;9.578;2022-09-03T13:55:54;100572.94;;;34.34;31.03
3544;BME280;1786;52.870;9.578;2022-09-03T13:58:30;100573.97;;;34.28;30.82
3544;BME280;1786;52.870;9.578;2022-09-03T14:03:34;100558.25;;;33.34;31.97
3544;BME280;1786;52.870;9.578;2022-09-03T14:17:16;100562.25;;;32.40;32.08
3544;BME280;1786;52.870;9.578;2022-09-03T14:19:52;100547.53;;;32.70;31.58
3544;BME280;1786;52.870;9.578;2022-09-03T14:22:25;100554.63;;;32.83;31.52
3544;BME280;1786;52.870;9.578;2022-09-03T14:24:59;100559.06;;;32.31;32.02
3544;BME280;1786;52.870;9.578;2022-09-03T14:27:29;100567.31;;;32.60;32.52
3544;BME280;1786;52.870;9.578;2022-09-03T14:30:17;100555.44;;;32.83;31.89
3544;BME280;1786;52.870;9.578;2022-09-03T14:35:37;100550.31;;;33.66;31.49
3544;BME280;1786;52.870;9.578;2022-09-03T14:43:55;100552.94;;;33.10;31.27
3544;BME280;1786;52.870;9.578;2022-09-03T14:46:52;100551.75;;;32.89;31.59
3544;BME280;1786;52.870;9.578;2022-09-03T14:49:40;100554.22;;;32.62;32.12
3544;BME280;1786;52.870;9.578;2022-09-03T14:55:04;100549.88;;;32.38;32.09
3544;BME280;1786;52.870;9.578;2022-09-03T14:57:57;100549.94;;;32.14;32.10
3544;BME280;1786;52.870;9.578;2022-09-03T15:09:18;100549.19;;;33.84;30.71
3544;BME280;1786;52.870;9.578;2022-09-03T15:11:56;100541.84;;;33.17;31.84
3544;BME280;1786;52.870;9.578;2022-09-03T15:14:29;100545.59;;;32.53;31.68
3544;BME280;1786;52.870;9.578;2022-09-03T15:20:04;100540.41;;;32.28;31.71
3544;BME280;1786;52.870;9.578;2022-09-03T15:31:09;100542.84;;;32.13;32.19
3544;BME280;1786;52.870;9.578;2022-09-03T15:34:08;100542.41;;;32.33;32.09
3544;BME280;1786;52.870;9.578;2022-09-03T15:36:48;100539.03;;;32.02;31.90
3544;BME280;1786;52.870;9.578;2022-09-03T15:39:27;100537.50;;;32.47;31.61
3544;BME280;1786;52.870;9.578;2022-09-03T15:41:58;100546.00;;;32.22;32.57
3544;BME280;1786;52.870;9.578;2022-09-03T15:44:40;100549.53;;;32.34;31.75
3544;BME280;1786;52.870;9.578;2022-09-03T15:47:12;100549.63;;;32.80;31.98
3544;BME280;1786;52.870;9.578;2022-09-03T15:55:38;100549.38;;;31.88;32.28
3544;BME280;1786;52.870;9.578;2022-09-03T15:58:40;100548.44;;;31.95;31.93
3544;BME280;1786;52.870;9.578;2022-09-03T16:01:31;100550.91;;;32.08;32.47
3544;BME280;1786;52.870;9.578;2022-09-03T16:04:07;100555.06;;;32.10;32.11
3544;BME280;1786;52.870;9.578;2022-09-03T16:06:58;100559.38;;;32.47;32.22
3544;BME280;1786;52.870;9.578;2022-09-03T16:09:31;100558.81;;;32.73;31.65
3544;BME280;1786;52.870;9.578;2022-09-03T16:12:15;100548.03;;;32.26;32.02
3544;BME280;1786;52.870;9.578;2022-09-03T16:14:50;100551.63;;;32.55;31.40
3544;BME280;1786;52.870;9.578;2022-09-03T16:17:28;100549.38;;;31.77;32.19
3544;BME280;1786;52.870;9.578;2022-09-03T16:20:12;100543.88;;;31.41;32.60
3544;BME280;1786;52.870;9.578;2022-09-03T16:23:00;100546.75;;;30.93;32.99
3544;BME280;1786;52.870;9.578;2022-09-03T16:25:32;100547.81;;;31.03;32.83
3544;BME280;1786;52.870;9.578;2022-09-03T16:28:27;100550.59;;;31.27;32.41
3544;BME280;1786;52.870;9.578;2022-09-03T16:33:46;100550.91;;;31.61;32.90
3544;BME280;1786;52.870;9.578;2022-09-03T16:36:43;100563.72;;;30.76;32.83
3544;BME280;1786;52.870;9.578;2022-09-03T16:42:17;100546.09;;;31.21;32.62
3544;BME280;1786;52.870;9.578;2022-09-03T16:45:14;100554.97;;;31.58;32.88